Time;durP1;ratioP1;P1;durP2;ratioP2;P2;SDS_P1;SDS_P2;PMS_P1;PMS_P2;Temp;Humidity;BMP_temperature;BMP_pressure;BME280_temperature;BME280_humidity;BME280_pressure;Samples;Min_cycle;Max_cycle;Signal;HPM_P1;HPM_P2
2022/01/10 00:00:18;;;;;;;20.73;8.02;;;3.20;99.90;;;;;;5078791;28;20032;-87
2022/01/10 00:02:47;;;;;;;16.60;7.70;;;3.10;99.90;;;;;;5097635;28;20115;-86
2022/01/10 00:05:13;;;;;;;18.65;7.97;;;3.10;99.90;;;;;;5096648;28;20059;-87
2022/01/10 00:07:39;;;;;;;18.00;7.22;;;3.00;99.90;;;;;;5062200;28;20373;-87
2022/01/10 00:10:06;;;;;;;15.65;8.32;;;3.00;99.90;;;;;;5062015;28;20126;-87
2022/01/10 00:12:32;;;;;;;20.45;8.70;;;3.00;99.90;;;;;;5078685;28;20118;-87
2022/01/10 00:14:57;;;;;;;19.33;9.13;;;3.00;99.90;;;;;;5096734;28;20082;-87
2022/01/10 00:17:23;;;;;;;18.35;8.13;;;3.00;99.90;;;;;;5096521;28;20112;-86
2022/01/10 00:19:49;;;;;;;22.58;8.63;;;3.00;99.90;;;;;;5096658;28;20061;-87
2022/01/10 00:22:15;;;;;;;18.55;8.07;;;3.00;99.90;;;;;;5061982;28;20122;-86
2022/01/10 00:24:41;;;;;;;22.23;9.30;;;3.00;99.90;;;;;;5062012;28;20388;-87
2022/01/10 00:27:07;;;;;;;61.30;27.65;;;2.90;99.90;;;;;;5078456;28;20507;-88
2022/01/10 00:29:32;;;;;;;74.45;30.50;;;2.90;99.90;;;;;;5096621;28;20054;-87
2022/01/10 00:31:58;;;;;;;46.90;18.33;;;2.80;99.90;;;;;;5061879;28;20468;-87
2022/01/10 00:34:25;;;;;;;37.83;16.48;;;2.80;99.90;;;;;;5062263;28;20476;-86
2022/01/10 00:36:51;;;;;;;38.45;15.93;;;2.80;99.90;;;;;;5078338;28;20059;-86
2022/01/10 00:39:17;;;;;;;27.02;13.05;;;2.80;99.90;;;;;;5096043;28;20040;-87
2022/01/10 00:41:44;;;;;;;26.98;13.23;;;2.80;99.90;;;;;;5078290;28;20032;-87
2022/01/10 00:44:11;;;;;;;20.35;10.38;;;2.70;99.90;;;;;;5078528;28;20063;-87
2022/01/10 00:46:37;;;;;;;22.10;9.45;;;2.80;99.90;;;;;;5061803;28;20043;-87
2022/01/10 00:49:05;;;;;;;21.25;9.88;;;2.70;99.90;;;;;;5078575;28;20040;-87
2022/01/10 00:51:31;;;;;;;16.98;9.18;;;2.70;99.90;;;;;;5070724;28;20036;-87
2022/01/10 00:53:57;;;;;;;19.33;10.52;;;2.70;99.90;;;;;;5062433;28;20040;-87
2022/01/10 00:56:24;;;;;;;19.30;9.40;;;2.60;99.90;;;;;;5045553;28;20060;-87
2022/01/10 00:58:50;;;;;;;21.20;9.65;;;2.60;99.90;;;;;;5065042;28;20094;-87
2022/01/10 01:01:17;;;;;;;21.80;9.90;;;2.60;99.90;;;;;;5069848;28;20036;-86
2022/01/10 01:03:43;;;;;;;22.95;9.23;;;2.60;99.90;;;;;;5065470;28;20043;-87
2022/01/10 01:06:11;;;;;;;20.45;8.73;;;2.60;99.90;;;;;;5065795;28;20085;-86
2022/01/10 01:08:37;;;;;;;19.15;9.48;;;2.60;99.90;;;;;;5061632;28;20037;-88
2022/01/10 01:16:16;;;;;;;25.42;9.75;;;2.50;99.90;;;;;;5081529;28;20040;-90
2022/01/10 01:24:04;;;;;;;25.77;9.85;;;2.50;99.90;;;;;;5065501;28;20054;-88
2022/01/10 01:26:34;;;;;;;19.35;9.52;;;2.50;99.90;;;;;;5078905;28;20043;-88
2022/01/10 01:29:00;;;;;;;18.92;8.73;;;2.40;99.90;;;;;;5076838;28;20032;-87
2022/01/10 01:31:26;;;;;;;25.65;11.43;;;2.40;99.90;;;;;;5047347;28;20032;-86
2022/01/10 01:33:52;;;;;;;18.75;10.27;;;2.40;99.90;;;;;;5058319;28;20040;-87
2022/01/10 01:36:22;;;;;;;22.55;10.15;;;2.40;99.90;;;;;;5070100;28;20050;-86
2022/01/10 01:38:49;;;;;;;24.80;10.60;;;2.40;99.90;;;;;;5046701;28;20047;-86
2022/01/10 01:43:44;;;;;;;19.33;10.13;;;2.40;99.90;;;;;;5056079;28;20125;-87
2022/01/10 01:46:10;;;;;;;22.92;10.70;;;2.40;99.90;;;;;;5054028;28;20039;-86
2022/01/10 01:48:36;;;;;;;20.52;10.20;;;2.30;99.90;;;;;;5039206;28;20036;-86
2022/01/10 01:51:03;;;;;;;19.10;10.45;;;2.30;99.90;;;;;;5082800;28;20036;-86
2022/01/10 01:53:30;;;;;;;31.40;12.25;;;2.30;99.90;;;;;;5075967;28;20040;-87
2022/01/10 01:55:57;;;;;;;20.08;10.85;;;2.30;99.90;;;;;;5061910;28;20037;-87
2022/01/10 01:58:24;;;;;;;19.95;10.23;;;2.30;99.90;;;;;;5053289;28;20036;-87
2022/01/10 02:00:50;;;;;;;26.85;10.32;;;2.20;99.90;;;;;;5073344;28;20036;-86
2022/01/10 02:03:15;;;;;;;25.00;11.45;;;2.20;99.90;;;;;;5068952;28;20123;-87
2022/01/10 02:05:41;;;;;;;28.92;13.10;;;2.20;99.90;;;;;;5058784;28;20453;-87
2022/01/10 02:08:09;;;;;;;21.65;10.35;;;2.20;99.90;;;;;;5032736;28;20033;-89
2022/01/10 02:10:35;;;;;;;29.08;11.80;;;2.20;99.90;;;;;;5091110;28;20052;-86
2022/01/10 02:13:01;;;;;;;25.85;11.82;;;2.10;99.90;;;;;;5090244;28;20048;-88
2022/01/10 02:15:41;;;;;;;24.98;12.27;;;2.10;99.90;;;;;;5079096;28;20095;-87
2022/01/10 02:18:07;;;;;;;18.52;10.25;;;2.20;99.90;;;;;;5080511;28;20105;-87
2022/01/10 02:20:33;;;;;;;26.35;10.90;;;2.10;99.90;;;;;;5085191;28;20477;-87
2022/01/10 02:22:59;;;;;;;23.05;10.80;;;2.20;99.90;;;;;;5083202;28;20045;-86
2022/01/10 02:25:25;;;;;;;30.80;12.45;;;2.10;99.90;;;;;;5086868;28;20048;-87
2022/01/10 02:27:51;;;;;;;28.70;12.55;;;2.10;99.90;;;;;;5069059;28;20468;-88
2022/01/10 02:30:18;;;;;;;21.88;10.75;;;2.10;99.90;;;;;;5070020;28;20043;-87
2022/01/10 02:32:44;;;;;;;28.75;12.90;;;2.10;99.90;;;;;;5055806;28;20152;-84
2022/01/10 02:35:27;;;;;;;23.13;11.23;;;2.00;99.90;;;;;;5082594;28;20589;-86
2022/01/10 02:37:54;;;;;;;33.22;12.48;;;2.00;99.90;;;;;;5089184;28;20032;-89
2022/01/10 02:40:23;;;;;;;24.48;11.93;;;2.00;99.90;;;;;;5084456;28;20035;-88
2022/01/10 02:42:49;;;;;;;25.63;12.05;;;2.00;99.90;;;;;;5064185;28;20059;-87
2022/01/10 02:45:16;;;;;;;25.63;12.18;;;2.00;99.90;;;;;;5079526;28;20032;-87
2022/01/10 02:47:42;;;;;;;32.70;14.18;;;2.00;99.90;;;;;;5084404;28;20035;-87
2022/01/10 02:50:10;;;;;;;34.42;13.60;;;2.00;99.90;;;;;;5047947;28;20123;-87
2022/01/10 02:52:37;;;;;;;26.45;12.80;;;2.00;99.90;;;;;;5057067;28;20037;-87
2022/01/10 02:55:04;;;;;;;20.80;11.45;;;1.90;99.90;;;;;;5074694;28;20116;-87
2022/01/10 02:57:31;;;;;;;26.17;13.35;;;1.90;99.90;;;;;;5062917;28;20127;-88
2022/01/10 02:59:58;;;;;;;35.83;13.38;;;1.90;99.90;;;;;;5060813;28;20033;-88
2022/01/10 03:02:29;;;;;;;29.20;13.55;;;1.90;99.90;;;;;;5044064;28;20040;-87
2022/01/10 03:04:54;;;;;;;30.65;12.82;;;1.90;99.90;;;;;;5059770;28;20028;-87
2022/01/10 03:07:23;;;;;;;26.35;13.63;;;1.90;99.90;;;;;;5063375;28;20033;-86
2022/01/10 03:09:53;;;;;;;31.67;14.65;;;1.90;99.90;;;;;;5066897;28;20036;-87
2022/01/10 03:12:19;;;;;;;32.03;14.48;;;1.90;99.90;;;;;;5031064;28;1090356;-87
2022/01/10 03:14:45;;;;;;;31.80;14.30;;;1.90;99.90;;;;;;5059615;28;20037;-87
2022/01/10 03:17:11;;;;;;;32.35;15.27;;;1.80;99.90;;;;;;5067010;28;20044;-87
2022/01/10 03:19:38;;;;;;;29.10;14.20;;;1.90;99.90;;;;;;5057242;28;20033;-87
2022/01/10 03:22:06;;;;;;;23.63;12.82;;;1.80;99.90;;;;;;5071196;28;20488;-87
2022/01/10 03:24:31;;;;;;;24.42;13.00;;;1.80;99.90;;;;;;5036826;28;20042;-87
2022/01/10 03:26:57;;;;;;;25.98;13.43;;;1.80;99.90;;;;;;5057945;28;20037;-87
2022/01/10 03:29:24;;;;;;;31.88;14.82;;;1.80;99.90;;;;;;5044503;28;20036;-86
2022/01/10 03:31:50;;;;;;;34.08;14.32;;;1.80;99.90;;;;;;5062063;28;20044;-87
2022/01/10 03:34:15;;;;;;;38.90;14.95;;;1.80;99.90;;;;;;5044715;28;20393;-87
2022/01/10 03:36:42;;;;;;;26.58;13.52;;;1.80;99.90;;;;;;5063508;28;20037;-87
2022/01/10 03:39:08;;;;;;;33.20;14.40;;;1.70;99.90;;;;;;5058591;28;20033;-86
2022/01/10 03:41:35;;;;;;;28.45;13.60;;;1.70;99.90;;;;;;5052668;28;20036;-87
2022/01/10 03:44:02;;;;;;;27.20;14.85;;;1.70;99.90;;;;;;5074284;28;20412;-87
2022/01/10 03:46:28;;;;;;;27.75;14.40;;;1.80;99.90;;;;;;5040994;28;20051;-87
2022/01/10 03:48:54;;;;;;;31.38;15.48;;;1.70;99.90;;;;;;5054598;28;20043;-86
2022/01/10 03:51:20;;;;;;;31.27;15.55;;;1.70;99.90;;;;;;5039126;28;20052;-87
2022/01/10 03:53:45;;;;;;;33.33;15.60;;;1.70;99.90;;;;;;5047041;28;20480;-88
2022/01/10 03:56:11;;;;;;;30.00;14.65;;;1.70;99.90;;;;;;5059076;28;20039;-87
2022/01/10 03:58:37;;;;;;;35.38;15.57;;;1.60;99.90;;;;;;5041409;28;20033;-86
2022/01/10 04:01:04;;;;;;;27.40;13.82;;;1.70;99.90;;;;;;5075537;28;20044;-88
2022/01/10 04:03:31;;;;;;;37.03;15.52;;;1.60;99.90;;;;;;5046599;28;20040;-87
2022/01/10 04:05:58;;;;;;;38.40;17.52;;;1.60;99.90;;;;;;5035973;28;20119;-87
2022/01/10 04:08:24;;;;;;;29.33;14.68;;;1.60;99.90;;;;;;5048263;28;20071;-88
2022/01/10 04:10:52;;;;;;;29.95;14.40;;;1.70;99.90;;;;;;5078827;28;20049;-88
2022/01/10 04:13:18;;;;;;;25.73;13.70;;;1.60;99.90;;;;;;5050514;28;20087;-86
2022/01/10 04:15:44;;;;;;;28.40;13.38;;;1.60;99.90;;;;;;5075094;28;20079;-87
2022/01/10 04:18:10;;;;;;;32.70;15.32;;;1.60;99.90;;;;;;5079152;28;20036;-87
2022/01/10 04:20:35;;;;;;;30.65;15.90;;;1.60;99.90;;;;;;5075194;28;20035;-87
2022/01/10 04:23:01;;;;;;;46.95;16.58;;;1.60;99.90;;;;;;5074638;28;20035;-87
2022/01/10 04:25:27;;;;;;;27.83;14.90;;;1.60;99.90;;;;;;5060473;28;20400;-86
2022/01/10 04:27:53;;;;;;;29.00;15.10;;;1.60;99.90;;;;;;5056065;28;20066;-87
2022/01/10 04:30:18;;;;;;;33.90;14.77;;;1.60;99.90;;;;;;5039868;28;20127;-87
2022/01/10 04:32:44;;;;;;;34.80;15.95;;;1.60;99.90;;;;;;5039610;28;20067;-87
2022/01/10 04:35:11;;;;;;;39.55;16.10;;;1.60;99.90;;;;;;5056448;28;20063;-87
2022/01/10 04:37:37;;;;;;;32.38;15.27;;;1.60;99.90;;;;;;5076390;28;20510;-90
2022/01/10 04:40:04;;;;;;;35.25;16.08;;;1.60;99.90;;;;;;5074817;28;20024;-87
2022/01/10 04:42:30;;;;;;;37.17;17.45;;;1.60;99.90;;;;;;5056469;28;20450;-86
2022/01/10 04:44:55;;;;;;;27.77;14.68;;;1.60;99.90;;;;;;5057573;28;20119;-87
2022/01/10 04:47:22;;;;;;;26.70;12.88;;;1.60;99.90;;;;;;5041331;28;20439;-87
2022/01/10 04:52:32;;;;;;;32.65;15.13;;;1.70;99.90;;;;;;5075429;28;20056;-86
2022/01/10 04:54:59;;;;;;;23.33;13.55;;;1.60;99.90;;;;;;5057570;28;20032;-86
2022/01/10 04:57:25;;;;;;;34.53;15.85;;;1.60;99.90;;;;;;5074446;28;20032;-87
2022/01/10 04:59:50;;;;;;;33.78;15.65;;;1.60;99.90;;;;;;5041112;28;20041;-87
2022/01/10 05:02:16;;;;;;;32.33;15.30;;;1.60;99.90;;;;;;5057716;28;20036;-86
2022/01/10 05:04:42;;;;;;;26.52;14.32;;;1.70;99.90;;;;;;5040769;28;20060;-87
2022/01/10 05:07:08;;;;;;;26.45;15.10;;;1.70;99.90;;;;;;5041406;28;20072;-86
2022/01/10 05:09:34;;;;;;;37.67;17.00;;;1.70;99.90;;;;;;5024346;28;20042;-86
2022/01/10 05:12:00;;;;;;;33.67;16.20;;;1.70;99.90;;;;;;5070810;28;20052;-86
2022/01/10 05:14:25;;;;;;;30.35;15.27;;;1.70;99.90;;;;;;5070833;28;20057;-87
2022/01/10 05:16:52;;;;;;;28.95;15.18;;;1.70;99.90;;;;;;5020781;28;20044;-86
2022/01/10 05:19:18;;;;;;;29.83;14.98;;;1.70;99.90;;;;;;5021391;28;20083;-87
2022/01/10 05:21:44;;;;;;;30.45;16.23;;;1.90;99.90;;;;;;5037217;28;20033;-87
2022/01/10 05:24:09;;;;;;;28.25;14.20;;;1.80;99.90;;;;;;5037526;28;20033;-87
2022/01/10 05:26:36;;;;;;;38.60;17.25;;;1.80;99.90;;;;;;5037193;28;20037;-86
2022/01/10 05:29:03;;;;;;;28.73;15.60;;;1.80;99.90;;;;;;5037158;28;20033;-86
2022/01/10 05:31:30;;;;;;;32.50;16.80;;;1.90;99.90;;;;;;5037076;28;20041;-86
2022/01/10 05:33:56;;;;;;;30.33;15.98;;;1.80;99.90;;;;;;5053690;28;20032;-86
2022/01/10 05:36:22;;;;;;;38.80;16.98;;;1.90;99.90;;;;;;5036993;28;20128;-86
2022/01/10 05:38:48;;;;;;;29.88;16.60;;;1.90;99.90;;;;;;5020556;28;20130;-87
2022/01/10 05:41:14;;;;;;;34.75;17.60;;;1.90;99.90;;;;;;5037159;28;20064;-87
2022/01/10 05:43:40;;;;;;;30.38;18.00;;;1.90;99.90;;;;;;5037161;28;20135;-87
2022/01/10 05:46:08;;;;;;;32.78;17.25;;;1.90;99.90;;;;;;5036626;28;20090;-87
2022/01/10 05:48:35;;;;;;;36.33;18.08;;;1.90;99.90;;;;;;5054428;28;20037;-87
2022/01/10 05:51:02;;;;;;;30.95;17.33;;;2.00;99.90;;;;;;5047784;28;20028;-88
2022/01/10 05:53:30;;;;;;;33.20;16.98;;;1.90;99.90;;;;;;5082759;28;20042;-87
2022/01/10 05:55:55;;;;;;;31.73;15.93;;;2.00;99.90;;;;;;5086208;28;20029;-87
2022/01/10 05:58:21;;;;;;;30.52;15.10;;;2.00;99.90;;;;;;5054215;28;20040;-90
2022/01/10 06:00:47;;;;;;;33.42;17.65;;;2.00;99.90;;;;;;5068219;28;20104;-93
2022/01/10 06:03:13;;;;;;;37.00;17.60;;;2.00;99.90;;;;;;5081807;28;20042;-87
2022/01/10 06:05:39;;;;;;;33.28;17.75;;;2.00;99.90;;;;;;5085031;28;20028;-88
2022/01/10 06:08:06;;;;;;;37.40;17.92;;;2.00;99.90;;;;;;5079901;28;20029;-87
2022/01/10 06:10:32;;;;;;;29.70;16.85;;;2.00;99.90;;;;;;5076290;28;20032;-87
2022/01/10 06:12:59;;;;;;;27.90;16.77;;;2.00;99.90;;;;;;5093241;28;20126;-87
2022/01/10 06:15:25;;;;;;;33.63;18.88;;;2.00;99.90;;;;;;5076311;28;20063;-88
2022/01/10 06:17:51;;;;;;;37.03;19.27;;;2.00;99.90;;;;;;5057903;28;20168;-88
2022/01/10 06:20:17;;;;;;;36.22;20.15;;;2.00;99.90;;;;;;5074928;28;20115;-87
2022/01/10 06:22:44;;;;;;;34.35;19.75;;;2.00;99.90;;;;;;5076461;28;20498;-86
2022/01/10 06:25:15;;;;;;;36.25;18.90;;;2.00;99.90;;;;;;5061609;28;20554;-88
2022/01/10 06:27:41;;;;;;;29.88;17.95;;;2.00;99.90;;;;;;5075134;28;20028;-88
2022/01/10 06:30:07;;;;;;;34.38;19.23;;;2.10;99.90;;;;;;5074627;28;20047;-87
2022/01/10 06:32:33;;;;;;;33.15;18.83;;;2.10;99.90;;;;;;5057894;28;20036;-88
2022/01/10 06:34:59;;;;;;;38.35;21.13;;;2.10;99.90;;;;;;5059348;28;20472;-87
2022/01/10 06:37:25;;;;;;;34.70;20.48;;;2.10;99.90;;;;;;5075598;28;20028;-87
2022/01/10 06:39:52;;;;;;;37.85;20.33;;;2.10;99.90;;;;;;5073966;28;20035;-87
2022/01/10 06:42:19;;;;;;;39.97;21.83;;;2.10;99.90;;;;;;5059718;28;20067;-87
2022/01/10 06:44:45;;;;;;;42.92;22.17;;;2.10;99.90;;;;;;5076700;28;20036;-88
2022/01/10 06:47:11;;;;;;;34.40;20.23;;;2.10;99.90;;;;;;5077926;28;20043;-87
2022/01/10 06:49:37;;;;;;;33.15;19.92;;;2.10;99.90;;;;;;5080561;28;20064;-87
2022/01/10 06:52:03;;;;;;;36.22;19.77;;;2.10;99.90;;;;;;5084025;28;20444;-87
2022/01/10 06:54:29;;;;;;;45.17;19.65;;;2.20;99.90;;;;;;5087051;28;20043;-87
2022/01/10 06:56:58;;;;;;;36.95;20.30;;;2.10;99.90;;;;;;5102737;28;20032;-89
2022/01/10 06:59:28;;;;;;;36.25;19.90;;;2.10;99.90;;;;;;5077574;28;20032;-87
2022/01/10 07:01:58;;;;;;;36.75;20.50;;;2.20;99.90;;;;;;5073479;28;20032;-87
2022/01/10 07:04:25;;;;;;;37.58;19.75;;;2.20;99.90;;;;;;5086083;28;20036;-87
2022/01/10 07:06:52;;;;;;;36.60;21.00;;;2.20;99.90;;;;;;5092768;28;20123;-89
2022/01/10 07:09:19;;;;;;;42.90;19.70;;;2.20;99.90;;;;;;5094416;28;20487;-88
2022/01/10 07:11:45;;;;;;;39.88;21.45;;;2.20;99.90;;;;;;5071446;28;20102;-88
2022/01/10 07:14:15;;;;;;;41.45;20.20;;;2.20;99.90;;;;;;5073552;28;20040;-89
2022/01/10 07:16:42;;;;;;;38.08;18.60;;;2.20;99.90;;;;;;5056535;28;20032;-88
2022/01/10 07:19:08;;;;;;;38.60;19.40;;;2.10;99.90;;;;;;5072054;28;20052;-87
2022/01/10 07:21:37;;;;;;;41.15;21.13;;;2.20;99.90;;;;;;5055636;28;20508;-87
2022/01/10 07:24:04;;;;;;;37.50;18.80;;;2.20;99.90;;;;;;5055873;28;20123;-88
2022/01/10 07:26:32;;;;;;;39.67;20.48;;;2.20;99.90;;;;;;5073555;28;20037;-88
2022/01/10 07:28:58;;;;;;;39.22;19.52;;;2.20;99.90;;;;;;5072152;28;20060;-87
2022/01/10 07:31:26;;;;;;;41.67;20.90;;;2.20;99.90;;;;;;5054920;28;20362;-87
2022/01/10 07:33:52;;;;;;;39.72;19.83;;;2.20;99.90;;;;;;5068305;28;20036;-88
2022/01/10 07:36:18;;;;;;;36.88;19.98;;;2.20;99.90;;;;;;5067780;28;20028;-87
2022/01/10 07:38:52;;;;;;;42.83;21.90;;;2.20;99.90;;;;;;5051738;28;20045;-88
2022/01/10 07:41:18;;;;;;;38.95;20.58;;;2.20;99.90;;;;;;5070945;28;20029;-88
2022/01/10 07:43:44;;;;;;;38.95;20.20;;;2.20;99.90;;;;;;5071419;28;20073;-87
2022/01/10 07:46:11;;;;;;;39.30;20.88;;;2.20;99.90;;;;;;5074442;28;20025;-88
2022/01/10 07:48:38;;;;;;;36.33;20.58;;;2.20;99.90;;;;;;5056557;28;20048;-87
2022/01/10 07:51:08;;;;;;;33.97;19.25;;;2.10;99.90;;;;;;5051942;28;20036;-88
2022/01/10 07:53:35;;;;;;;38.28;20.38;;;2.10;99.90;;;;;;5061839;28;20128;-87
2022/01/10 07:56:02;;;;;;;44.78;22.55;;;2.10;99.90;;;;;;5044191;28;20067;-87
2022/01/10 07:58:28;;;;;;;39.45;21.40;;;2.10;99.90;;;;;;5045353;28;20025;-87
2022/01/10 08:00:54;;;;;;;41.88;21.67;;;2.10;99.90;;;;;;5046598;28;20024;-88
2022/01/10 08:03:19;;;;;;;40.65;22.02;;;2.10;99.90;;;;;;5064290;28;20456;-88
2022/01/10 08:05:45;;;;;;;44.88;22.63;;;2.00;99.90;;;;;;5049627;28;20025;-87
2022/01/10 08:08:11;;;;;;;43.80;23.20;;;2.10;99.90;;;;;;5054633;28;20411;-87
2022/01/10 08:10:37;;;;;;;49.42;23.10;;;2.00;99.90;;;;;;5054612;28;20025;-87
2022/01/10 08:13:03;;;;;;;43.05;23.00;;;2.00;99.90;;;;;;5074021;28;20069;-87
2022/01/10 08:15:30;;;;;;;40.55;21.70;;;2.00;99.90;;;;;;5090910;28;20028;-86
2022/01/10 08:17:56;;;;;;;39.78;22.92;;;2.00;99.90;;;;;;5044857;28;20340;-88
2022/01/10 08:20:22;;;;;;;40.90;21.88;;;2.00;99.90;;;;;;5061049;28;20486;-86
2022/01/10 08:22:48;;;;;;;45.08;24.13;;;2.00;99.90;;;;;;5077929;28;20036;-88
2022/01/10 08:25:13;;;;;;;44.80;22.98;;;2.10;99.90;;;;;;5078218;28;20028;-87
2022/01/10 08:27:39;;;;;;;53.45;24.27;;;2.10;99.90;;;;;;5078356;28;20120;-87
2022/01/10 08:30:06;;;;;;;42.35;22.98;;;2.10;99.90;;;;;;5077931;28;20024;-93
2022/01/10 08:32:33;;;;;;;43.13;23.67;;;2.10;99.90;;;;;;5078260;28;20024;-87
2022/01/10 08:34:59;;;;;;;45.85;23.48;;;2.10;99.90;;;;;;5078052;28;20032;-87
2022/01/10 08:37:24;;;;;;;46.35;24.48;;;2.20;99.90;;;;;;5060870;28;20528;-85
2022/01/10 08:39:51;;;;;;;48.95;24.08;;;2.10;99.90;;;;;;5077853;28;20051;-86
2022/01/10 08:42:21;;;;;;;37.67;22.50;;;2.20;99.90;;;;;;5078719;28;20036;-85
2022/01/10 08:44:48;;;;;;;36.67;22.75;;;2.20;99.90;;;;;;5078176;28;20173;-87
2022/01/10 08:47:14;;;;;;;40.95;23.85;;;2.20;99.90;;;;;;5044770;28;20062;-86
2022/01/10 08:49:40;;;;;;;48.28;22.67;;;2.20;99.90;;;;;;5096135;28;20036;-86
2022/01/10 08:52:06;;;;;;;40.65;23.25;;;2.20;99.90;;;;;;5077413;28;20032;-86
2022/01/10 08:54:33;;;;;;;42.70;23.08;;;2.20;99.90;;;;;;5061550;28;20047;-86
2022/01/10 08:56:59;;;;;;;46.20;24.45;;;2.30;99.90;;;;;;5061197;28;20367;-86
2022/01/10 08:59:28;;;;;;;45.33;25.13;;;2.30;99.90;;;;;;5077539;28;20024;-86
2022/01/10 09:01:57;;;;;;;42.72;23.90;;;2.30;99.90;;;;;;5077645;28;20455;-86
2022/01/10 09:04:23;;;;;;;45.40;24.05;;;2.30;99.90;;;;;;5077409;28;20362;-87
2022/01/10 09:06:51;;;;;;;49.28;25.02;;;2.30;99.90;;;;;;5077528;28;20487;-87
2022/01/10 09:09:17;;;;;;;54.60;28.63;;;2.40;99.90;;;;;;5060858;28;20527;-86
2022/01/10 09:11:44;;;;;;;50.17;26.98;;;2.40;99.90;;;;;;5060134;28;20051;-87
2022/01/10 09:14:11;;;;;;;46.95;26.35;;;2.40;99.90;;;;;;5077084;28;20035;-89
2022/01/10 09:16:38;;;;;;;43.30;24.45;;;2.40;99.90;;;;;;5077734;28;20115;-86
2022/01/10 09:19:03;;;;;;;43.67;25.92;;;2.50;99.90;;;;;;5078083;28;20070;-86
2022/01/10 09:21:29;;;;;;;49.50;25.17;;;2.50;99.90;;;;;;5060993;28;20445;-86
2022/01/10 09:23:57;;;;;;;53.17;29.10;;;2.50;99.90;;;;;;5060735;28;20039;-84
2022/01/10 09:26:23;;;;;;;48.22;27.20;;;2.60;99.90;;;;;;5096088;28;20461;-86
2022/01/10 09:28:49;;;;;;;47.83;25.98;;;2.60;99.90;;;;;;5076641;28;20123;-87
2022/01/10 09:31:15;;;;;;;41.47;24.55;;;2.60;99.90;;;;;;5076944;28;20120;-86
2022/01/10 09:33:42;;;;;;;45.60;26.27;;;2.60;99.90;;;;;;5077309;28;20032;-86
2022/01/10 09:36:08;;;;;;;53.88;26.83;;;2.70;99.90;;;;;;5070022;28;20044;-86
2022/01/10 09:38:34;;;;;;;46.38;26.38;;;2.70;99.90;;;;;;5097105;28;20039;-86
2022/01/10 09:41:00;;;;;;;44.47;25.40;;;2.70;99.90;;;;;;5080422;28;20040;-86
2022/01/10 09:43:26;;;;;;;49.55;25.38;;;2.70;99.90;;;;;;5115780;28;20077;-87
2022/01/10 09:45:53;;;;;;;49.00;26.92;;;2.70;99.90;;;;;;5074751;28;20104;-86
2022/01/10 09:48:20;;;;;;;51.13;25.55;;;2.70;99.90;;;;;;5079267;28;20050;-88
2022/01/10 09:50:45;;;;;;;50.17;27.13;;;2.80;99.90;;;;;;5086653;28;20047;-89
2022/01/10 09:53:13;;;;;;;57.30;28.67;;;2.80;99.90;;;;;;5059414;28;20390;-88
2022/01/10 09:55:39;;;;;;;50.10;27.60;;;2.80;99.90;;;;;;5071178;28;20028;-86
2022/01/10 09:58:04;;;;;;;45.10;26.90;;;2.90;99.90;;;;;;5089743;28;20032;-86
2022/01/10 10:00:31;;;;;;;46.63;24.50;;;2.90;99.90;;;;;;5072381;28;20045;-86
2022/01/10 10:02:57;;;;;;;44.63;24.45;;;2.90;99.90;;;;;;5075803;28;20036;-86
2022/01/10 10:05:23;;;;;;;53.83;26.77;;;3.00;99.90;;;;;;5059013;28;20118;-87
2022/01/10 10:07:51;;;;;;;46.70;24.45;;;3.00;99.90;;;;;;5071979;28;20090;-86
2022/01/10 10:10:20;;;;;;;43.85;25.60;;;3.10;99.90;;;;;;5072986;28;20028;-91
2022/01/10 10:12:48;;;;;;;52.25;29.35;;;3.10;99.90;;;;;;5042662;28;20442;-85
2022/01/10 10:15:17;;;;;;;52.30;28.60;;;3.10;99.90;;;;;;5075925;28;20072;-85
2022/01/10 10:17:43;;;;;;;59.03;30.48;;;3.10;99.90;;;;;;5075990;28;20135;-85
2022/01/10 10:20:15;;;;;;;57.08;28.38;;;3.20;99.90;;;;;;5059370;28;20183;-86
2022/01/10 10:22:43;;;;;;;60.85;30.02;;;3.30;99.90;;;;;;5075912;28;20028;-86
2022/01/10 10:25:10;;;;;;;42.55;26.33;;;3.30;99.90;;;;;;5094017;28;20587;-86
2022/01/10 10:27:42;;;;;;;51.05;27.40;;;3.30;99.90;;;;;;5093907;28;20047;-86
2022/01/10 10:30:15;;;;;;;49.90;27.35;;;3.40;99.90;;;;;;5094092;28;20028;-89
2022/01/10 10:32:41;;;;;;;54.25;28.70;;;3.40;99.90;;;;;;5087467;28;20032;-87
2022/01/10 10:35:08;;;;;;;53.33;29.15;;;3.50;99.90;;;;;;5055933;28;20051;-87
2022/01/10 10:37:40;;;;;;;57.83;29.45;;;3.50;99.90;;;;;;5074810;28;20036;-87
2022/01/10 10:40:09;;;;;;;58.28;30.02;;;3.60;99.90;;;;;;5092603;28;20034;-88
2022/01/10 10:42:39;;;;;;;59.05;28.70;;;3.60;99.90;;;;;;5075597;28;20056;-85
2022/01/10 10:45:09;;;;;;;61.53;30.60;;;3.70;99.90;;;;;;5093798;28;20036;-89
2022/01/10 10:47:37;;;;;;;66.72;31.75;;;3.70;99.90;;;;;;5093028;28;20031;-89
2022/01/10 10:50:05;;;;;;;53.92;28.73;;;3.80;99.90;;;;;;5058960;28;20472;-87
2022/01/10 10:52:37;;;;;;;54.92;29.88;;;3.90;99.90;;;;;;5075106;28;20090;-85
2022/01/10 10:55:14;;;;;;;62.33;31.48;;;3.90;99.90;;;;;;5092179;28;20036;-86
2022/01/10 10:57:41;;;;;;;53.92;28.52;;;4.00;99.90;;;;;;5092278;28;20028;-86
2022/01/10 11:00:15;;;;;;;53.38;28.35;;;4.10;99.90;;;;;;5058806;28;20067;-86
2022/01/10 11:02:42;;;;;;;51.08;28.08;;;4.20;99.90;;;;;;5094528;28;20110;-88
2022/01/10 11:05:08;;;;;;;47.58;27.98;;;4.20;99.90;;;;;;5078083;28;20082;-85
2022/01/10 11:07:35;;;;;;;48.75;27.60;;;4.20;99.90;;;;;;5081420;28;20036;-85
2022/01/10 11:10:06;;;;;;;46.53;27.52;;;4.30;99.90;;;;;;5065317;28;20036;-84
2022/01/10 11:12:35;;;;;;;50.83;26.30;;;4.40;99.90;;;;;;5079754;28;20055;-86
2022/01/10 11:15:01;;;;;;;44.65;25.60;;;4.50;99.90;;;;;;5092319;28;20032;-87
2022/01/10 11:17:28;;;;;;;45.78;26.90;;;4.50;99.90;;;;;;5058536;28;20036;-87
2022/01/10 11:20:25;;;;;;;50.72;29.70;;;4.60;99.90;;;;;;5091947;28;20055;-88
2022/01/10 11:22:54;;;;;;;54.35;26.55;;;4.70;99.90;;;;;;5092874;28;20032;-87
2022/01/10 11:25:31;;;;;;;51.03;26.38;;;4.80;99.90;;;;;;5057652;28;20113;-88
2022/01/10 11:28:23;;;;;;;44.17;24.60;;;4.90;99.90;;;;;;5088579;28;20472;-88
2022/01/10 11:30:53;;;;;;;49.65;26.27;;;5.00;99.90;;;;;;5089811;28;20028;-86
2022/01/10 11:33:26;;;;;;;46.22;26.55;;;5.10;99.90;;;;;;5058752;28;20483;-87
2022/01/10 11:36:01;;;;;;;44.55;25.88;;;5.20;99.90;;;;;;5075245;28;20078;-91
2022/01/10 11:38:41;;;;;;;46.42;25.00;;;5.30;99.90;;;;;;5075242;28;20356;-89
2022/01/10 11:41:14;;;;;;;44.53;23.27;;;5.40;99.90;;;;;;5074959;28;20032;-86
2022/01/10 11:43:55;;;;;;;43.00;23.80;;;5.50;99.90;;;;;;5088192;28;20074;-86
2022/01/10 11:46:23;;;;;;;;;;;5.60;99.90;;;;;;5089291;28;20066;-86
2022/01/10 11:48:58;;;;;;;41.95;22.55;;;5.60;99.90;;;;;;5069291;28;20367;-86
2022/01/10 11:51:37;;;;;;;45.80;23.65;;;5.70;99.90;;;;;;5077704;28;20376;-86
2022/01/10 11:54:18;;;;;;;36.97;21.55;;;5.80;99.90;;;;;;5097393;28;20032;-85
2022/01/10 11:56:55;;;;;;;44.92;23.30;;;5.90;99.90;;;;;;5079131;28;20051;-86
2022/01/10 11:59:42;;;;;;;39.78;22.05;;;6.00;99.90;;;;;;5075128;28;20050;-86
2022/01/10 12:02:14;;;;;;;41.03;23.30;;;6.10;99.90;;;;;;5080619;28;20035;-85
2022/01/10 12:04:42;;;;;;;41.47;22.50;;;6.20;99.90;;;;;;5076756;28;20181;-86
2022/01/10 12:07:10;;;;;;;42.78;21.85;;;6.30;99.90;;;;;;5076775;28;20071;-86
2022/01/10 12:09:37;;;;;;;40.65;22.02;;;6.40;99.90;;;;;;5078123;28;20021;-85
2022/01/10 12:12:04;;;;;;;35.05;20.85;;;6.50;99.90;;;;;;5078026;28;20067;-85
2022/01/10 12:14:31;;;;;;;42.42;22.67;;;6.60;99.90;;;;;;5061658;28;20396;-87
2022/01/10 12:17:00;;;;;;;44.42;23.02;;;6.70;99.90;;;;;;5096864;28;20047;-85
2022/01/10 12:19:26;;;;;;;39.85;21.30;;;6.90;99.90;;;;;;5078463;28;20036;-85
2022/01/10 12:21:53;;;;;;;34.15;19.75;;;7.00;99.90;;;;;;5096441;28;20074;-85
2022/01/10 12:24:19;;;;;;;35.95;19.00;;;7.10;99.90;;;;;;5096881;28;20487;-84
2022/01/10 12:26:45;;;;;;;36.65;19.23;;;7.10;99.90;;;;;;5096278;28;20488;-85
2022/01/10 12:29:13;;;;;;;34.67;18.75;;;7.20;99.90;;;;;;5061651;28;20032;-84
2022/01/10 12:31:40;;;;;;;34.00;19.33;;;7.20;99.90;;;;;;5077781;28;20032;-84
2022/01/10 12:34:08;;;;;;;32.25;17.83;;;7.30;99.90;;;;;;5096333;28;20035;-85
2022/01/10 12:36:36;;;;;;;35.42;19.30;;;7.40;99.90;;;;;;5077894;28;20025;-85
2022/01/10 12:39:06;;;;;;;34.75;18.90;;;7.40;99.90;;;;;;5094921;28;20024;-85
2022/01/10 12:41:32;;;;;;;32.58;17.40;;;7.50;99.90;;;;;;5078223;28;20034;-86
2022/01/10 12:43:59;;;;;;;32.58;17.92;;;7.60;99.90;;;;;;5078056;28;20118;-85
2022/01/10 12:46:30;;;;;;;34.78;18.50;;;7.70;99.90;;;;;;5078329;28;20111;-84
2022/01/10 12:48:55;;;;;;;34.25;18.02;;;7.80;99.90;;;;;;5077859;28;20028;-85
2022/01/10 12:51:21;;;;;;;28.50;17.77;;;7.80;99.90;;;;;;5078151;28;20032;-87
2022/01/10 12:53:51;;;;;;;25.63;15.98;;;7.90;99.90;;;;;;5096046;28;20043;-85